createdAt,value
2018-05-15T00:00:00.837Z,51.11
2018-05-15T00:02:29.236Z,50.90
2018-05-15T00:04:57.652Z,50.78
2018-05-15T00:07:26.206Z,51.05
2018-05-15T00:09:54.616Z,52.05
2018-05-15T00:12:23.029Z,51.67
2018-05-15T00:14:51.488Z,51.47
2018-05-15T00:17:19.901Z,51.49
2018-05-15T00:19:48.313Z,51.74
2018-05-15T00:22:16.776Z,51.64
2018-05-15T00:24:45.197Z,52.04
2018-05-15T00:27:13.613Z,53.63
2018-05-15T00:29:42.081Z,54.15
2018-05-15T00:32:10.499Z,54.17
2018-05-15T00:34:38.909Z,55.26
2018-05-15T00:37:07.360Z,56.40
2018-05-15T00:39:35.784Z,56.58
2018-05-15T00:42:04.201Z,55.64
2018-05-15T00:44:32.684Z,55.05
2018-05-15T00:47:01.090Z,55.29
2018-05-15T00:49:29.496Z,54.89
2018-05-15T00:51:57.935Z,55.47
2018-05-15T00:54:26.400Z,55.17
2018-05-15T00:56:54.789Z,55.47
2018-05-15T00:59:23.436Z,55.32
2018-05-15T01:01:51.844Z,55.37
2018-05-15T01:04:20.260Z,55.23
2018-05-15T01:06:48.704Z,55.28
2018-05-15T01:09:17.152Z,55.54
2018-05-15T01:11:45.576Z,55.47
2018-05-15T01:14:14.027Z,55.58
2018-05-15T01:16:42.442Z,55.69
2018-05-15T01:19:10.869Z,56.01
2018-05-15T01:21:39.333Z,56.29
2018-05-15T01:24:07.763Z,56.21
2018-05-15T01:26:36.169Z,56.49
2018-05-15T01:29:04.621Z,56.37
2018-05-15T01:31:33.028Z,56.37
2018-05-15T01:34:01.451Z,56.41
2018-05-15T01:36:29.923Z,56.40
2018-05-15T01:38:58.325Z,57.09
2018-05-15T01:41:26.734Z,56.98
2018-05-15T01:43:55.193Z,56.79
2018-05-15T01:46:23.600Z,56.96
2018-05-15T01:48:52.012Z,56.96
2018-05-15T01:51:20.500Z,57.23
2018-05-15T01:53:48.932Z,57.15
2018-05-15T01:56:17.340Z,56.97
2018-05-15T01:58:45.790Z,57.80
2018-05-15T02:01:14.195Z,57.70
2018-05-15T02:03:42.600Z,57.78
2018-05-15T02:06:11.053Z,57.31
2018-05-15T02:08:39.483Z,57.79
2018-05-15T02:11:07.899Z,57.98
2018-05-15T02:13:36.360Z,57.94
2018-05-15T02:16:04.769Z,58.45
2018-05-15T02:18:33.186Z,58.93
2018-05-15T02:21:01.629Z,59.07
2018-05-15T02:23:30.060Z,59.33
2018-05-15T02:25:58.468Z,59.61
2018-05-15T02:28:26.972Z,60.25
2018-05-15T02:30:55.380Z,60.56
2018-05-15T02:33:23.788Z,60.21
2018-05-15T02:35:52.238Z,60.12
2018-05-15T02:38:20.724Z,60.04
2018-05-15T02:40:49.148Z,59.92
2018-05-15T02:43:17.596Z,59.71
2018-05-15T02:45:46.035Z,59.56
2018-05-15T02:48:14.458Z,59.58
2018-05-15T02:50:42.918Z,59.71
2018-05-15T02:53:11.340Z,59.70
2018-05-15T02:55:39.742Z,59.49
2018-05-15T02:58:08.195Z,59.37
2018-05-15T03:00:36.633Z,59.46
2018-05-15T03:03:05.054Z,59.42
2018-05-15T03:05:33.504Z,59.57
2018-05-15T03:08:01.917Z,60.16
2018-05-15T03:10:30.320Z,60.70
2018-05-15T03:12:58.782Z,60.60
2018-05-15T03:15:27.194Z,60.68
2018-05-15T03:17:55.612Z,61.19
2018-05-15T03:20:24.067Z,61.51
2018-05-15T03:22:52.501Z,61.24
2018-05-15T03:25:20.915Z,61.33
2018-05-15T03:27:49.365Z,61.96
2018-05-15T03:30:17.783Z,61.59
2018-05-15T03:32:46.203Z,61.38
2018-05-15T03:35:14.649Z,61.30
2018-05-15T03:37:43.060Z,61.43
2018-05-15T03:40:11.485Z,61.44
2018-05-15T03:42:39.969Z,62.85
2018-05-15T03:45:08.385Z,61.95
2018-05-15T03:47:36.801Z,62.96
2018-05-15T03:50:05.260Z,64.29
2018-05-15T03:52:33.684Z,63.72
2018-05-15T03:55:02.113Z,63.58
2018-05-15T03:57:30.559Z,63.58
2018-05-15T03:59:58.967Z,62.87
2018-05-15T04:05:46.068Z,62.67
2018-05-15T04:08:14.580Z,65.05
2018-05-15T04:10:42.999Z,65.90
2018-05-15T04:13:11.412Z,66.43
2018-05-15T04:15:39.902Z,66.32
2018-05-15T04:18:08.304Z,66.74
2018-05-15T04:20:36.709Z,66.84
2018-05-15T04:23:05.188Z,65.41
2018-05-15T04:25:33.584Z,65.52
2018-05-15T04:28:02.082Z,66.27
2018-05-15T04:30:30.826Z,65.98
2018-05-15T04:32:59.242Z,65.28
2018-05-15T04:35:27.650Z,64.82
2018-05-15T04:37:56.126Z,64.85
2018-05-15T04:40:24.544Z,65.99
2018-05-15T04:42:52.955Z,66.07
2018-05-15T04:45:21.432Z,67.26
2018-05-15T04:47:49.850Z,67.18
2018-05-15T04:50:18.279Z,66.75
2018-05-15T04:52:46.819Z,66.79
2018-05-15T04:55:15.253Z,67.10
2018-05-15T04:57:43.668Z,66.00
2018-05-15T05:00:12.139Z,67.04
2018-05-15T05:02:40.576Z,67.58
2018-05-15T05:05:09.049Z,66.81
2018-05-15T05:07:37.530Z,66.28
2018-05-15T05:10:05.963Z,66.14
2018-05-15T05:12:34.404Z,65.84
2018-05-15T05:15:02.864Z,66.09
2018-05-15T05:17:31.284Z,65.03
2018-05-15T05:19:59.716Z,63.73
2018-05-15T05:22:28.189Z,64.49
2018-05-15T05:24:56.618Z,64.31
2018-05-15T05:27:25.036Z,64.08
2018-05-15T05:29:53.514Z,64.18
2018-05-15T05:32:21.946Z,64.15
2018-05-15T05:34:50.376Z,63.53
2018-05-15T05:37:18.836Z,63.45
2018-05-15T05:39:47.305Z,64.27
2018-05-15T05:42:15.796Z,63.95
2018-05-15T05:44:44.265Z,64.29
2018-05-15T05:47:12.719Z,63.88
2018-05-15T05:49:41.149Z,63.91
2018-05-15T05:52:09.621Z,62.68
2018-05-15T05:54:38.055Z,64.34
2018-05-15T05:57:06.478Z,63.35
2018-05-15T05:59:34.941Z,63.52
2018-05-15T06:02:03.373Z,63.11
2018-05-15T06:04:31.788Z,62.42
2018-05-15T06:07:00.245Z,61.93
2018-05-15T06:09:28.664Z,60.84
2018-05-15T06:11:57.092Z,61.33
2018-05-15T06:14:25.568Z,61.07
2018-05-15T06:16:54.009Z,61.02
2018-05-15T06:19:22.437Z,61.04
2018-05-15T06:21:50.890Z,60.48
2018-05-15T06:24:19.318Z,61.52
2018-05-15T06:26:47.765Z,60.41
2018-05-15T06:29:16.246Z,61.44
2018-05-15T06:31:44.676Z,59.72
2018-05-15T06:34:13.105Z,59.69
2018-05-15T06:36:41.597Z,60.14
2018-05-15T06:39:10.033Z,59.82
2018-05-15T06:41:38.459Z,58.72
2018-05-15T06:44:06.950Z,58.60
2018-05-15T06:46:35.374Z,58.52
2018-05-15T06:49:03.793Z,58.00
2018-05-15T06:51:32.291Z,57.42
2018-05-15T06:54:00.707Z,56.16
2018-05-15T06:56:29.123Z,56.23
2018-05-15T06:58:57.589Z,57.35
2018-05-15T07:01:26.004Z,57.29
2018-05-15T07:03:54.437Z,57.78
2018-05-15T07:06:22.921Z,56.43
2018-05-15T07:08:51.380Z,57.18
2018-05-15T07:11:19.813Z,57.04
2018-05-15T07:13:48.284Z,57.26
2018-05-15T07:16:16.735Z,55.80
2018-05-15T07:18:45.181Z,55.26
2018-05-15T07:21:13.652Z,55.24
2018-05-15T07:23:42.072Z,53.57
2018-05-15T07:26:10.500Z,53.12
2018-05-15T07:28:38.957Z,50.93
2018-05-15T07:31:07.380Z,52.00
2018-05-15T07:33:35.805Z,52.58
2018-05-15T07:36:04.284Z,51.30
2018-05-15T07:38:32.708Z,48.35
2018-05-15T07:41:01.137Z,49.36
2018-05-15T07:43:29.621Z,49.39
2018-05-15T07:45:58.049Z,48.65
2018-05-15T07:48:26.490Z,48.90
2018-05-15T07:50:54.987Z,47.37
2018-05-15T07:53:23.420Z,47.12
2018-05-15T07:55:52.306Z,48.37
2018-05-15T07:58:20.775Z,47.96
2018-05-15T08:00:49.199Z,46.66
2018-05-15T08:03:17.653Z,47.43
2018-05-15T08:05:46.147Z,47.08
2018-05-15T08:08:14.584Z,45.81
2018-05-15T08:10:43.008Z,45.95
2018-05-15T08:13:11.497Z,46.27
2018-05-15T08:15:39.928Z,47.22
2018-05-15T08:18:08.360Z,46.45
2018-05-15T08:20:36.837Z,47.26
2018-05-15T08:23:05.259Z,46.69
2018-05-15T08:25:33.699Z,47.73
2018-05-15T08:28:02.156Z,49.87
2018-05-15T08:30:30.581Z,46.70
2018-05-15T08:32:58.995Z,45.82
2018-05-15T08:35:27.487Z,46.61
2018-05-15T08:37:55.931Z,46.24
2018-05-15T08:40:24.345Z,45.85
2018-05-15T08:42:52.808Z,42.63
2018-05-15T08:45:21.251Z,43.60
2018-05-15T08:47:49.678Z,44.04
2018-05-15T08:50:18.155Z,43.71
2018-05-15T08:52:46.590Z,42.40
2018-05-15T08:55:15.032Z,42.54
2018-05-15T08:57:43.516Z,43.12
2018-05-15T09:00:11.941Z,43.97
2018-05-15T09:02:40.401Z,42.10
2018-05-15T09:05:08.884Z,42.01
2018-05-15T09:07:37.315Z,42.10
2018-05-15T09:10:05.747Z,41.31
2018-05-15T09:12:34.218Z,42.66
2018-05-15T09:15:02.647Z,41.82
2018-05-15T09:17:31.077Z,41.28
2018-05-15T09:19:59.570Z,42.40
2018-05-15T09:22:28.009Z,41.51
2018-05-15T09:24:56.492Z,40.59
2018-05-15T09:27:24.933Z,40.81
2018-05-15T09:29:53.376Z,40.22
2018-05-15T09:32:21.806Z,41.19
2018-05-15T09:34:50.275Z,39.74
2018-05-15T09:37:18.696Z,40.10
2018-05-15T09:39:47.126Z,39.06
2018-05-15T09:42:15.610Z,41.40
2018-05-15T09:44:44.874Z,38.85
2018-05-15T09:47:13.308Z,38.38
2018-05-15T09:49:41.782Z,38.79
2018-05-15T09:52:10.211Z,38.95
2018-05-15T09:54:38.639Z,38.99
2018-05-15T09:57:07.120Z,38.68
2018-05-15T09:59:35.540Z,39.34
2018-05-15T10:02:03.979Z,38.35
2018-05-15T10:04:32.444Z,38.88
2018-05-15T10:07:00.871Z,38.84
2018-05-15T10:09:29.295Z,38.21
2018-05-15T10:11:57.820Z,36.39
2018-05-15T10:14:26.245Z,36.64
2018-05-15T10:16:54.673Z,35.95
2018-05-15T10:19:23.140Z,36.05
2018-05-15T10:21:51.568Z,34.83
2018-05-15T10:24:20.013Z,35.87
2018-05-15T10:26:48.462Z,35.17
2018-05-15T10:29:16.908Z,34.82
2018-05-15T10:31:45.335Z,35.92
2018-05-15T10:34:13.785Z,35.31
2018-05-15T10:36:42.203Z,34.59
2018-05-15T10:39:10.620Z,34.37
2018-05-15T10:41:39.090Z,35.34
2018-05-15T10:44:07.503Z,34.91
2018-05-15T10:46:35.922Z,35.41
2018-05-15T10:49:04.379Z,35.73
2018-05-15T10:51:32.788Z,35.21
2018-05-15T10:54:01.205Z,34.27
2018-05-15T10:56:29.678Z,34.38
2018-05-15T10:58:58.109Z,35.99
2018-05-15T11:01:26.553Z,34.38
2018-05-15T11:03:55.132Z,32.23
2018-05-15T11:06:23.549Z,33.70
2018-05-15T11:08:51.965Z,32.90
2018-05-15T11:11:21.197Z,31.84
2018-05-15T11:13:49.616Z,32.81
2018-05-15T11:16:18.045Z,32.70
2018-05-15T11:18:46.574Z,32.94
2018-05-15T11:21:26.764Z,32.85
2018-05-15T11:26:59.100Z,34.29
2018-05-15T11:29:27.560Z,34.38
2018-05-15T11:31:56.005Z,35.08
2018-05-15T11:34:24.458Z,34.77
2018-05-15T11:36:53.006Z,35.14
2018-05-15T11:39:21.576Z,33.44
2018-05-15T11:41:50.011Z,33.92
2018-05-15T11:44:18.477Z,34.22
2018-05-15T11:46:46.925Z,34.11
2018-05-15T11:49:15.853Z,33.29
2018-05-15T11:51:44.654Z,34.35
2018-05-15T11:54:12.276Z,34.81
2018-05-15T11:56:40.696Z,33.22
2018-05-15T11:59:09.222Z,34.01
2018-05-15T12:01:37.638Z,33.22
2018-05-15T12:04:06.069Z,32.82
2018-05-15T12:06:34.560Z,32.72
2018-05-15T12:09:03.031Z,32.54
2018-05-15T12:11:31.464Z,33.00
2018-05-15T12:13:59.912Z,34.79
2018-05-15T12:16:28.330Z,33.26
2018-05-15T12:18:56.873Z,32.71
2018-05-15T12:21:25.457Z,33.49
2018-05-15T12:23:53.901Z,32.68
2018-05-15T12:26:22.326Z,32.54
2018-05-15T12:28:50.785Z,32.74
2018-05-15T12:31:19.213Z,31.89
2018-05-15T12:33:47.624Z,32.24
2018-05-15T12:36:16.103Z,32.61
2018-05-15T12:38:44.524Z,32.74
2018-05-15T12:41:12.967Z,33.52
2018-05-15T12:43:41.441Z,34.69
2018-05-15T12:46:09.875Z,34.17
2018-05-15T12:48:38.346Z,33.36
2018-05-15T12:51:06.963Z,33.38
2018-05-15T12:53:35.387Z,33.58
2018-05-15T12:56:03.813Z,33.33
2018-05-15T12:58:32.293Z,32.64
2018-05-15T13:01:00.706Z,31.58
2018-05-15T13:03:29.138Z,30.86
2018-05-15T13:05:57.620Z,31.23
2018-05-15T13:08:26.049Z,31.41
2018-05-15T13:10:55.083Z,31.82
2018-05-15T13:13:23.561Z,32.49
2018-05-15T13:15:51.990Z,32.71
2018-05-15T13:18:20.449Z,33.20
2018-05-15T13:20:48.936Z,33.38
2018-05-15T13:23:17.360Z,33.17
2018-05-15T13:25:45.776Z,32.47
2018-05-15T13:28:14.223Z,32.57
2018-05-15T13:30:42.658Z,32.47
2018-05-15T13:33:11.084Z,33.80
2018-05-15T13:35:39.544Z,34.30
2018-05-15T13:38:07.959Z,33.39
2018-05-15T13:40:36.369Z,34.60
2018-05-15T13:43:04.841Z,34.20
2018-05-15T13:45:33.272Z,34.09
2018-05-15T13:48:01.696Z,34.29
2018-05-15T13:50:30.187Z,33.58
2018-05-15T13:52:58.641Z,34.31
2018-05-15T13:58:01.789Z,34.31
2018-05-15T14:00:30.220Z,34.99
2018-05-15T14:02:58.633Z,35.97
2018-05-15T14:05:27.096Z,35.86
2018-05-15T14:07:56.244Z,35.46
2018-05-15T14:10:25.173Z,35.84
2018-05-15T14:12:53.683Z,35.32
2018-05-15T14:15:22.103Z,34.44
2018-05-15T14:17:50.520Z,32.65
2018-05-15T14:20:18.988Z,32.84
2018-05-15T14:22:47.401Z,31.87
2018-05-15T14:25:15.822Z,32.05
2018-05-15T14:27:44.319Z,33.27
2018-05-15T14:30:12.745Z,33.18
2018-05-15T14:32:41.160Z,33.27
2018-05-15T14:35:09.648Z,32.78
2018-05-15T14:37:38.062Z,33.03
2018-05-15T14:40:06.485Z,33.14
2018-05-15T14:42:46.625Z,33.93
2018-05-15T14:45:16.815Z,33.38
2018-05-15T14:47:45.255Z,34.23
2018-05-15T14:50:13.709Z,35.81
2018-05-15T14:52:42.121Z,34.79
2018-05-15T14:55:10.545Z,34.06
2018-05-15T14:57:39.029Z,34.51
2018-05-15T15:00:07.462Z,34.60
2018-05-15T15:02:35.883Z,34.01
2018-05-15T15:05:04.396Z,34.24
2018-05-15T15:07:32.809Z,34.97
2018-05-15T15:10:01.213Z,34.87
2018-05-15T15:12:29.669Z,35.29
2018-05-15T15:14:58.084Z,35.73
2018-05-15T15:17:26.600Z,35.27
2018-05-15T15:19:55.027Z,35.21
2018-05-15T15:22:23.449Z,34.80
2018-05-15T15:24:51.866Z,35.52
2018-05-15T15:27:20.337Z,35.73
2018-05-15T15:29:48.772Z,35.56
2018-05-15T15:32:17.192Z,35.62
2018-05-15T15:34:45.688Z,35.78
2018-05-15T15:37:14.123Z,35.76
2018-05-15T15:39:42.545Z,34.97
2018-05-15T15:42:10.988Z,33.93
2018-05-15T15:44:39.426Z,34.99
2018-05-15T15:47:07.846Z,35.42
2018-05-15T15:49:36.327Z,35.98
2018-05-15T15:52:04.751Z,35.04
2018-05-15T15:54:33.184Z,35.02
2018-05-15T15:57:01.644Z,36.12
2018-05-15T15:59:30.060Z,36.65
2018-05-15T16:01:58.510Z,36.74
2018-05-15T16:04:27.244Z,37.47
2018-05-15T16:06:55.935Z,37.30
2018-05-15T16:09:24.359Z,38.04
2018-05-15T16:11:52.833Z,37.90
2018-05-15T16:14:21.265Z,38.00
2018-05-15T16:16:49.686Z,38.04
2018-05-15T16:19:18.148Z,38.27
2018-05-15T16:21:46.565Z,38.68
2018-05-15T16:24:14.991Z,38.19
2018-05-15T16:26:43.460Z,38.14
2018-05-15T16:29:11.885Z,37.42
2018-05-15T16:31:40.305Z,38.01
2018-05-15T16:34:08.781Z,38.00
2018-05-15T16:36:37.196Z,37.58
2018-05-15T16:39:06.456Z,38.00
2018-05-15T16:41:35.007Z,37.39
2018-05-15T16:44:03.457Z,36.86
2018-05-15T16:46:31.878Z,36.90
2018-05-15T16:49:00.368Z,36.70
2018-05-15T16:51:28.785Z,36.75
2018-05-15T16:53:57.208Z,36.64
2018-05-15T16:56:25.652Z,36.32
2018-05-15T16:58:54.140Z,36.26
2018-05-15T17:01:22.522Z,36.83
2018-05-15T17:03:51.000Z,38.01
2018-05-15T17:06:19.404Z,38.47
2018-05-15T17:08:47.837Z,40.13
2018-05-15T17:11:16.313Z,41.72
2018-05-15T17:13:44.861Z,43.12
2018-05-15T17:16:13.182Z,44.65
2018-05-15T17:18:41.658Z,45.89
2018-05-15T17:21:10.074Z,47.40
2018-05-15T17:23:38.502Z,48.47
2018-05-15T17:26:06.977Z,49.32
2018-05-15T17:28:35.387Z,52.75
2018-05-15T17:31:03.900Z,55.03
2018-05-15T17:33:32.316Z,57.30
2018-05-15T17:36:00.735Z,59.01
2018-05-15T17:38:29.152Z,59.81
2018-05-15T17:40:57.733Z,61.92
2018-05-15T17:43:26.070Z,64.38
2018-05-15T17:45:54.488Z,66.61
2018-05-15T17:48:22.956Z,68.68
2018-05-15T17:50:51.403Z,69.73
2018-05-15T17:53:19.820Z,70.03
2018-05-15T17:55:48.282Z,69.63
2018-05-15T17:58:16.710Z,69.74
2018-05-15T18:00:45.165Z,70.31
2018-05-15T18:03:13.612Z,70.04
2018-05-15T18:05:42.021Z,69.81
2018-05-15T18:08:10.432Z,69.25
2018-05-15T18:10:38.896Z,70.21
2018-05-15T18:13:07.317Z,69.05
2018-05-15T18:15:35.743Z,68.51
2018-05-15T18:18:04.240Z,69.73
2018-05-15T18:20:32.652Z,70.76
2018-05-15T18:23:01.073Z,70.09
2018-05-15T18:25:29.556Z,72.31
2018-05-15T18:27:57.973Z,70.84
2018-05-15T18:30:26.411Z,71.13
2018-05-15T18:32:54.936Z,70.95
2018-05-15T18:35:23.329Z,71.53
2018-05-15T18:37:51.742Z,71.46
2018-05-15T18:40:20.196Z,72.28
2018-05-15T18:42:48.606Z,71.96
2018-05-15T18:45:17.068Z,72.37
2018-05-15T18:47:45.509Z,72.56
2018-05-15T18:50:13.917Z,72.55
2018-05-15T18:52:42.349Z,72.55
2018-05-15T18:55:10.807Z,72.77
2018-05-15T18:57:39.218Z,71.74
2018-05-15T19:00:07.654Z,71.61
2018-05-15T19:02:36.102Z,71.80
2018-05-15T19:05:04.529Z,73.83
2018-05-15T19:07:32.940Z,72.77
2018-05-15T19:10:01.397Z,72.20
2018-05-15T19:12:29.818Z,72.17
2018-05-15T19:14:58.240Z,73.66
2018-05-15T19:17:26.727Z,74.04
2018-05-15T19:19:55.143Z,72.99
2018-05-15T19:22:23.551Z,73.58
2018-05-15T19:24:52.005Z,73.50
2018-05-15T19:27:20.483Z,73.56
2018-05-15T19:29:48.893Z,73.50
2018-05-15T19:32:17.393Z,73.24
2018-05-15T19:34:51.255Z,74.28
2018-05-15T19:37:19.720Z,74.77
2018-05-15T19:39:48.148Z,74.19
2018-05-15T19:42:16.595Z,74.70
2018-05-15T19:44:45.044Z,73.77
2018-05-15T19:47:13.459Z,75.18
2018-05-15T19:49:41.872Z,74.14
2018-05-15T19:52:10.320Z,74.39
2018-05-15T19:54:38.732Z,74.26
2018-05-15T19:57:07.151Z,75.19
2018-05-15T19:59:35.608Z,74.53
2018-05-15T20:02:04.029Z,74.59
2018-05-15T20:04:32.442Z,74.28
2018-05-15T20:07:00.914Z,73.80
2018-05-15T20:09:29.329Z,72.37
2018-05-15T20:11:57.740Z,72.87
2018-05-15T20:14:26.194Z,72.25
2018-05-15T20:16:54.611Z,71.86
2018-05-15T20:19:23.033Z,71.77
2018-05-15T20:21:51.489Z,71.88
2018-05-15T20:24:19.923Z,72.22
2018-05-15T20:26:48.339Z,73.58
2018-05-15T20:29:16.819Z,74.17
2018-05-15T20:31:45.225Z,73.77
2018-05-15T20:34:13.640Z,75.05
2018-05-15T20:36:42.110Z,75.05
2018-05-15T20:39:10.525Z,75.46
2018-05-15T20:41:38.949Z,75.25
2018-05-15T20:44:07.415Z,75.12
2018-05-15T20:46:35.858Z,75.65
2018-05-15T20:49:04.277Z,75.27
2018-05-15T20:51:32.729Z,75.15
2018-05-15T20:54:01.147Z,74.92
2018-05-15T20:56:29.554Z,74.33
2018-05-15T20:58:58.031Z,74.72
2018-05-15T21:01:26.440Z,74.30
2018-05-15T21:03:54.844Z,74.24
2018-05-15T21:06:23.284Z,73.86
2018-05-15T21:08:51.701Z,77.73
2018-05-15T21:11:20.116Z,77.38
2018-05-15T21:13:48.564Z,75.97
2018-05-15T21:16:16.979Z,75.95
2018-05-15T21:18:45.397Z,77.97
2018-05-15T21:21:13.856Z,78.21
2018-05-15T21:23:42.284Z,77.75
2018-05-15T21:26:10.723Z,77.25
2018-05-15T21:28:39.190Z,78.60
2018-05-15T21:31:07.609Z,76.74
2018-05-15T21:33:36.017Z,77.73
2018-05-15T21:36:04.488Z,76.47
2018-05-15T21:38:32.898Z,76.73
2018-05-15T21:41:01.313Z,75.75
2018-05-15T21:43:29.756Z,77.86
2018-05-15T21:45:58.523Z,76.31
2018-05-15T21:48:26.926Z,77.09
2018-05-15T21:50:55.372Z,77.31
2018-05-15T21:53:23.785Z,76.70
2018-05-15T21:55:52.192Z,76.52
2018-05-15T21:58:20.785Z,77.14
2018-05-15T22:00:49.200Z,79.28
2018-05-15T22:03:17.614Z,77.78
2018-05-15T22:05:46.080Z,78.04
2018-05-15T22:08:14.491Z,77.47
2018-05-15T22:10:42.906Z,77.49
2018-05-15T22:13:23.082Z,78.29
2018-05-15T22:16:03.211Z,79.31
2018-05-15T22:18:43.473Z,79.46
2018-05-15T22:21:23.490Z,80.10
2018-05-15T22:23:51.406Z,79.86
2018-05-15T22:26:19.816Z,79.84
2018-05-15T22:28:48.236Z,78.86
2018-05-15T22:31:16.687Z,79.23
2018-05-15T22:33:45.096Z,78.81
2018-05-15T22:36:13.520Z,77.88
2018-05-15T22:38:41.997Z,79.27
2018-05-15T22:41:10.428Z,79.81
2018-05-15T22:43:38.845Z,79.26
2018-05-15T22:46:07.328Z,79.54
2018-05-15T22:48:35.754Z,78.65
2018-05-15T22:51:04.163Z,79.14
2018-05-15T22:53:32.624Z,78.38
2018-05-15T22:56:01.052Z,78.86
2018-05-15T22:58:29.468Z,79.81
2018-05-15T23:00:57.918Z,79.89
2018-05-15T23:03:26.330Z,79.34
2018-05-15T23:05:54.750Z,79.14
2018-05-15T23:08:23.200Z,78.81
2018-05-15T23:10:51.613Z,78.30
2018-05-15T23:13:20.037Z,79.16
2018-05-15T23:15:48.543Z,79.19
2018-05-15T23:18:16.960Z,79.17
2018-05-15T23:20:45.385Z,78.76
2018-05-15T23:23:13.854Z,78.87
2018-05-15T23:25:42.260Z,78.56
2018-05-15T23:28:10.703Z,78.39
2018-05-15T23:30:39.186Z,78.51
2018-05-15T23:33:07.595Z,78.15
2018-05-15T23:35:36.017Z,78.21
2018-05-15T23:38:04.516Z,78.01
2018-05-15T23:40:32.932Z,77.94
2018-05-15T23:43:01.383Z,77.96
2018-05-15T23:45:29.842Z,78.43
2018-05-15T23:47:58.251Z,79.47
2018-05-15T23:50:26.665Z,80.76
2018-05-15T23:52:55.128Z,81.12
2018-05-15T23:55:23.544Z,80.57
2018-05-15T23:57:51.998Z,80.90
